sensor_id;sensor_type;location;lat;lon;timestamp;P1;durP1;ratioP1;P2;durP2;ratioP2
85807;SDS011;76250;48.718;9.000;2024-03-08T00:00:13;16.43;;;14.73;;
85807;SDS011;76250;48.718;9.000;2024-03-08T00:02:47;17.17;;;15.37;;
85807;SDS011;76250;48.718;9.000;2024-03-08T00:05:18;17.90;;;16.00;;
85807;SDS011;76250;48.718;9.000;2024-03-08T00:07:46;16.20;;;14.50;;
85807;SDS011;76250;48.718;9.000;2024-03-08T00:10:14;17.63;;;15.60;;
85807;SDS011;76250;48.718;9.000;2024-03-08T00:12:44;16.20;;;14.17;;
85807;SDS011;76250;48.718;9.000;2024-03-08T00:15:14;16.20;;;14.47;;
85807;SDS011;76250;48.718;9.000;2024-03-08T00:17:46;16.37;;;14.50;;
85807;SDS011;76250;48.718;9.000;2024-03-08T00:20:15;15.90;;;14.30;;
85807;SDS011;76250;48.718;9.000;2024-03-08T00:22:46;17.50;;;15.07;;
85807;SDS011;76250;48.718;9.000;2024-03-08T00:25:14;15.50;;;13.90;;
85807;SDS011;76250;48.718;9.000;2024-03-08T00:27:43;17.70;;;15.87;;
85807;SDS011;76250;48.718;9.000;2024-03-08T00:30:11;17.33;;;15.13;;
85807;SDS011;76250;48.718;9.000;2024-03-08T00:32:42;17.07;;;14.67;;
85807;SDS011;76250;48.718;9.000;2024-03-08T00:35:10;15.50;;;13.90;;
85807;SDS011;76250;48.718;9.000;2024-03-08T00:37:40;17.57;;;14.13;;
85807;SDS011;76250;48.718;9.000;2024-03-08T00:40:09;15.40;;;13.60;;
85807;SDS011;76250;48.718;9.000;2024-03-08T00:42:38;17.33;;;15.43;;
85807;SDS011;76250;48.718;9.000;2024-03-08T00:45:08;16.70;;;14.00;;
85807;SDS011;76250;48.718;9.000;2024-03-08T00:47:38;18.10;;;15.17;;
85807;SDS011;76250;48.718;9.000;2024-03-08T00:50:06;15.93;;;14.23;;
85807;SDS011;76250;48.718;9.000;2024-03-08T00:52:36;17.63;;;15.57;;
85807;SDS011;76250;48.718;9.000;2024-03-08T00:55:04;15.27;;;13.60;;
85807;SDS011;76250;48.718;9.000;2024-03-08T00:57:32;18.00;;;15.13;;
85807;SDS011;76250;48.718;9.000;2024-03-08T01:00:02;15.70;;;14.00;;
85807;SDS011;76250;48.718;9.000;2024-03-08T01:02:37;17.83;;;15.93;;
85807;SDS011;76250;48.718;9.000;2024-03-08T01:05:06;17.30;;;15.50;;
85807;SDS011;76250;48.718;9.000;2024-03-08T01:07:36;16.30;;;14.60;;
85807;SDS011;76250;48.718;9.000;2024-03-08T01:10:04;18.23;;;15.90;;
85807;SDS011;76250;48.718;9.000;2024-03-08T01:12:39;16.60;;;14.43;;
85807;SDS011;76250;48.718;9.000;2024-03-08T01:15:07;18.20;;;15.60;;
85807;SDS011;76250;48.718;9.000;2024-03-08T01:17:37;14.87;;;13.43;;
85807;SDS011;76250;48.718;9.000;2024-03-08T01:20:05;15.90;;;14.33;;
85807;SDS011;76250;48.718;9.000;2024-03-08T01:22:35;16.13;;;14.23;;
85807;SDS011;76250;48.718;9.000;2024-03-08T01:25:03;16.33;;;14.43;;
85807;SDS011;76250;48.718;9.000;2024-03-08T01:27:32;16.03;;;14.33;;
85807;SDS011;76250;48.718;9.000;2024-03-08T01:30:02;16.27;;;14.57;;
85807;SDS011;76250;48.718;9.000;2024-03-08T01:32:31;15.50;;;13.80;;
85807;SDS011;76250;48.718;9.000;2024-03-08T01:34:59;16.17;;;14.40;;
85807;SDS011;76250;48.718;9.000;2024-03-08T01:37:27;14.63;;;13.13;;
85807;SDS011;76250;48.718;9.000;2024-03-08T01:39:56;15.03;;;13.23;;
85807;SDS011;76250;48.718;9.000;2024-03-08T01:42:24;15.10;;;13.50;;
85807;SDS011;76250;48.718;9.000;2024-03-08T01:44:52;16.53;;;14.60;;
85807;SDS011;76250;48.718;9.000;2024-03-08T01:47:23;16.77;;;14.43;;
85807;SDS011;76250;48.718;9.000;2024-03-08T01:49:52;16.90;;;14.87;;
85807;SDS011;76250;48.718;9.000;2024-03-08T01:52:20;16.33;;;14.63;;
85807;SDS011;76250;48.718;9.000;2024-03-08T01:54:49;17.73;;;14.60;;
85807;SDS011;76250;48.718;9.000;2024-03-08T01:57:18;15.27;;;13.67;;
85807;SDS011;76250;48.718;9.000;2024-03-08T01:59:46;14.70;;;13.23;;
85807;SDS011;76250;48.718;9.000;2024-03-08T02:02:15;14.97;;;13.10;;
85807;SDS011;76250;48.718;9.000;2024-03-08T02:04:47;14.77;;;13.27;;
85807;SDS011;76250;48.718;9.000;2024-03-08T02:07:16;15.93;;;14.23;;
85807;SDS011;76250;48.718;9.000;2024-03-08T02:09:44;15.93;;;14.33;;
85807;SDS011;76250;48.718;9.000;2024-03-08T02:12:11;14.70;;;13.20;;
85807;SDS011;76250;48.718;9.000;2024-03-08T02:14:40;14.80;;;13.03;;
85807;SDS011;76250;48.718;9.000;2024-03-08T02:17:08;17.67;;;15.70;;
85807;SDS011;76250;48.718;9.000;2024-03-08T02:19:36;14.70;;;13.20;;
85807;SDS011;76250;48.718;9.000;2024-03-08T02:22:04;15.70;;;13.73;;
85807;SDS011;76250;48.718;9.000;2024-03-08T02:24:33;15.83;;;14.20;;
85807;SDS011;76250;48.718;9.000;2024-03-08T02:27:01;14.90;;;13.37;;
85807;SDS011;76250;48.718;9.000;2024-03-08T02:29:29;13.80;;;12.30;;
85807;SDS011;76250;48.718;9.000;2024-03-08T02:31:58;16.63;;;14.80;;
85807;SDS011;76250;48.718;9.000;2024-03-08T02:34:26;14.60;;;13.10;;
85807;SDS011;76250;48.718;9.000;2024-03-08T02:36:54;13.97;;;12.57;;
85807;SDS011;76250;48.718;9.000;2024-03-08T02:39:23;14.40;;;13.00;;
85807;SDS011;76250;48.718;9.000;2024-03-08T02:41:51;14.57;;;13.07;;
85807;SDS011;76250;48.718;9.000;2024-03-08T02:44:19;14.07;;;12.67;;
85807;SDS011;76250;48.718;9.000;2024-03-08T02:46:48;15.73;;;14.03;;
85807;SDS011;76250;48.718;9.000;2024-03-08T02:49:17;14.63;;;12.93;;
85807;SDS011;76250;48.718;9.000;2024-03-08T02:51:45;15.13;;;12.83;;
85807;SDS011;76250;48.718;9.000;2024-03-08T02:54:13;14.70;;;12.70;;
85807;SDS011;76250;48.718;9.000;2024-03-08T02:56:41;15.43;;;13.83;;
85807;SDS011;76250;48.718;9.000;2024-03-08T02:59:09;14.17;;;12.67;;
85807;SDS011;76250;48.718;9.000;2024-03-08T03:01:37;15.90;;;12.67;;
85807;SDS011;76250;48.718;9.000;2024-03-08T03:04:05;13.97;;;12.60;;
85807;SDS011;76250;48.718;9.000;2024-03-08T03:06:33;15.20;;;12.60;;
85807;SDS011;76250;48.718;9.000;2024-03-08T03:09:01;12.97;;;11.57;;
85807;SDS011;76250;48.718;9.000;2024-03-08T03:11:29;13.77;;;12.40;;
85807;SDS011;76250;48.718;9.000;2024-03-08T03:13:57;14.17;;;12.00;;
85807;SDS011;76250;48.718;9.000;2024-03-08T03:16:25;14.27;;;12.77;;
85807;SDS011;76250;48.718;9.000;2024-03-08T03:18:53;12.97;;;11.67;;
85807;SDS011;76250;48.718;9.000;2024-03-08T03:21:23;13.10;;;11.80;;
85807;SDS011;76250;48.718;9.000;2024-03-08T03:23:51;14.87;;;12.67;;
85807;SDS011;76250;48.718;9.000;2024-03-08T03:26:20;14.23;;;12.73;;
85807;SDS011;76250;48.718;9.000;2024-03-08T03:28:49;12.97;;;11.67;;
85807;SDS011;76250;48.718;9.000;2024-03-08T03:31:17;14.30;;;12.63;;
85807;SDS011;76250;48.718;9.000;2024-03-08T03:33:45;14.80;;;12.77;;
85807;SDS011;76250;48.718;9.000;2024-03-08T03:36:14;13.90;;;12.50;;
85807;SDS011;76250;48.718;9.000;2024-03-08T03:38:43;14.57;;;13.00;;
85807;SDS011;76250;48.718;9.000;2024-03-08T03:41:11;15.20;;;13.17;;
85807;SDS011;76250;48.718;9.000;2024-03-08T03:43:42;14.77;;;13.17;;
85807;SDS011;76250;48.718;9.000;2024-03-08T03:46:10;14.53;;;13.03;;
85807;SDS011;76250;48.718;9.000;2024-03-08T03:48:38;15.07;;;13.33;;
85807;SDS011;76250;48.718;9.000;2024-03-08T03:51:06;14.63;;;13.13;;
85807;SDS011;76250;48.718;9.000;2024-03-08T03:53:34;14.57;;;13.07;;
85807;SDS011;76250;48.718;9.000;2024-03-08T03:56:02;13.37;;;11.80;;
85807;SDS011;76250;48.718;9.000;2024-03-08T03:58:34;14.50;;;12.53;;
85807;SDS011;76250;48.718;9.000;2024-03-08T04:01:04;13.90;;;12.37;;
85807;SDS011;76250;48.718;9.000;2024-03-08T04:03:32;14.50;;;13.00;;
85807;SDS011;76250;48.718;9.000;2024-03-08T04:06:00;13.47;;;12.17;;
85807;SDS011;76250;48.718;9.000;2024-03-08T04:08:29;13.50;;;12.10;;
85807;SDS011;76250;48.718;9.000;2024-03-08T04:10:57;13.40;;;12.00;;
85807;SDS011;76250;48.718;9.000;2024-03-08T04:13:25;13.13;;;11.70;;
85807;SDS011;76250;48.718;9.000;2024-03-08T04:15:54;13.57;;;12.17;;
85807;SDS011;76250;48.718;9.000;2024-03-08T04:18:21;13.83;;;12.30;;
85807;SDS011;76250;48.718;9.000;2024-03-08T04:20:49;14.37;;;12.70;;
85807;SDS011;76250;48.718;9.000;2024-03-08T04:23:17;14.60;;;12.90;;
85807;SDS011;76250;48.718;9.000;2024-03-08T04:25:46;14.47;;;12.97;;
85807;SDS011;76250;48.718;9.000;2024-03-08T04:28:14;15.37;;;13.77;;
85807;SDS011;76250;48.718;9.000;2024-03-08T04:30:44;12.90;;;11.60;;
85807;SDS011;76250;48.718;9.000;2024-03-08T04:33:13;14.27;;;12.10;;
85807;SDS011;76250;48.718;9.000;2024-03-08T04:35:44;12.97;;;11.67;;
85807;SDS011;76250;48.718;9.000;2024-03-08T04:38:13;14.13;;;12.63;;
85807;SDS011;76250;48.718;9.000;2024-03-08T04:40:41;13.97;;;12.67;;
85807;SDS011;76250;48.718;9.000;2024-03-08T04:43:09;14.73;;;13.20;;
85807;SDS011;76250;48.718;9.000;2024-03-08T04:45:38;15.17;;;13.57;;
85807;SDS011;76250;48.718;9.000;2024-03-08T04:48:06;14.23;;;12.77;;
85807;SDS011;76250;48.718;9.000;2024-03-08T04:50:35;14.60;;;13.00;;
85807;SDS011;76250;48.718;9.000;2024-03-08T04:53:05;15.70;;;14.10;;
85807;SDS011;76250;48.718;9.000;2024-03-08T04:55:35;14.33;;;12.83;;
85807;SDS011;76250;48.718;9.000;2024-03-08T04:58:04;15.47;;;13.87;;
85807;SDS011;76250;48.718;9.000;2024-03-08T05:00:35;15.13;;;13.63;;
85807;SDS011;76250;48.718;9.000;2024-03-08T05:03:03;14.60;;;12.77;;
85807;SDS011;76250;48.718;9.000;2024-03-08T05:05:32;14.93;;;13.33;;
85807;SDS011;76250;48.718;9.000;2024-03-08T05:08:00;18.10;;;14.67;;
85807;SDS011;76250;48.718;9.000;2024-03-08T05:10:28;15.43;;;13.83;;
85807;SDS011;76250;48.718;9.000;2024-03-08T05:12:56;14.70;;;13.17;;
85807;SDS011;76250;48.718;9.000;2024-03-08T05:15:24;14.80;;;13.30;;
85807;SDS011;76250;48.718;9.000;2024-03-08T05:17:52;14.27;;;12.77;;
85807;SDS011;76250;48.718;9.000;2024-03-08T05:20:21;16.37;;;12.77;;
85807;SDS011;76250;48.718;9.000;2024-03-08T05:22:49;13.10;;;11.80;;
85807;SDS011;76250;48.718;9.000;2024-03-08T05:25:18;12.90;;;11.57;;
85807;SDS011;76250;48.718;9.000;2024-03-08T05:27:46;13.17;;;11.80;;
85807;SDS011;76250;48.718;9.000;2024-03-08T05:30:14;12.53;;;11.23;;
85807;SDS011;76250;48.718;9.000;2024-03-08T05:32:42;13.73;;;12.33;;
85807;SDS011;76250;48.718;9.000;2024-03-08T05:35:14;11.50;;;10.40;;
85807;SDS011;76250;48.718;9.000;2024-03-08T05:37:43;12.50;;;11.30;;
85807;SDS011;76250;48.718;9.000;2024-03-08T05:40:12;12.07;;;10.80;;
85807;SDS011;76250;48.718;9.000;2024-03-08T05:42:45;12.63;;;11.23;;
85807;SDS011;76250;48.718;9.000;2024-03-08T05:45:13;13.40;;;11.50;;
85807;SDS011;76250;48.718;9.000;2024-03-08T05:47:42;12.57;;;10.77;;
85807;SDS011;76250;48.718;9.000;2024-03-08T05:50:11;13.50;;;11.50;;
85807;SDS011;76250;48.718;9.000;2024-03-08T05:52:39;13.23;;;11.67;;
85807;SDS011;76250;48.718;9.000;2024-03-08T05:55:07;11.90;;;10.70;;
85807;SDS011;76250;48.718;9.000;2024-03-08T05:57:37;12.27;;;10.97;;
85807;SDS011;76250;48.718;9.000;2024-03-08T06:00:08;12.63;;;11.33;;
85807;SDS011;76250;48.718;9.000;2024-03-08T06:02:39;12.53;;;11.23;;
85807;SDS011;76250;48.718;9.000;2024-03-08T06:05:09;12.43;;;11.13;;
85807;SDS011;76250;48.718;9.000;2024-03-08T06:07:38;14.53;;;12.93;;
85807;SDS011;76250;48.718;9.000;2024-03-08T06:10:09;13.03;;;11.67;;
85807;SDS011;76250;48.718;9.000;2024-03-08T06:12:39;14.40;;;12.10;;
85807;SDS011;76250;48.718;9.000;2024-03-08T06:15:09;14.33;;;11.77;;
85807;SDS011;76250;48.718;9.000;2024-03-08T06:17:37;13.37;;;11.63;;
85807;SDS011;76250;48.718;9.000;2024-03-08T06:20:09;14.20;;;12.47;;
85807;SDS011;76250;48.718;9.000;2024-03-08T06:22:38;15.27;;;13.13;;
85807;SDS011;76250;48.718;9.000;2024-03-08T06:25:09;14.20;;;12.70;;
85807;SDS011;76250;48.718;9.000;2024-03-08T06:27:41;14.33;;;12.83;;
85807;SDS011;76250;48.718;9.000;2024-03-08T06:30:15;14.27;;;12.87;;
85807;SDS011;76250;48.718;9.000;2024-03-08T06:32:44;14.23;;;12.40;;
85807;SDS011;76250;48.718;9.000;2024-03-08T06:35:12;14.73;;;13.20;;
85807;SDS011;76250;48.718;9.000;2024-03-08T06:37:43;16.27;;;14.57;;
85807;SDS011;76250;48.718;9.000;2024-03-08T06:40:11;15.30;;;13.70;;
85807;SDS011;76250;48.718;9.000;2024-03-08T06:42:41;17.00;;;15.20;;
85807;SDS011;76250;48.718;9.000;2024-03-08T06:45:10;15.80;;;14.10;;
85807;SDS011;76250;48.718;9.000;2024-03-08T06:47:40;15.83;;;14.23;;
85807;SDS011;76250;48.718;9.000;2024-03-08T06:50:09;16.47;;;13.80;;
85807;SDS011;76250;48.718;9.000;2024-03-08T06:52:38;15.13;;;13.17;;
85807;SDS011;76250;48.718;9.000;2024-03-08T06:55:07;15.00;;;13.07;;
85807;SDS011;76250;48.718;9.000;2024-03-08T06:57:40;17.00;;;15.10;;
85807;SDS011;76250;48.718;9.000;2024-03-08T07:00:08;16.90;;;15.10;;
85807;SDS011;76250;48.718;9.000;2024-03-08T07:02:42;15.37;;;13.87;;
85807;SDS011;76250;48.718;9.000;2024-03-08T07:05:13;15.23;;;13.63;;
85807;SDS011;76250;48.718;9.000;2024-03-08T07:07:41;16.77;;;14.97;;
85807;SDS011;76250;48.718;9.000;2024-03-08T07:10:09;16.27;;;14.47;;
85807;SDS011;76250;48.718;9.000;2024-03-08T07:12:38;15.57;;;13.67;;
85807;SDS011;76250;48.718;9.000;2024-03-08T07:15:06;16.80;;;14.23;;
85807;SDS011;76250;48.718;9.000;2024-03-08T07:17:35;14.90;;;13.40;;
85807;SDS011;76250;48.718;9.000;2024-03-08T07:20:03;15.27;;;13.67;;
85807;SDS011;76250;48.718;9.000;2024-03-08T07:22:36;14.30;;;12.80;;
85807;SDS011;76250;48.718;9.000;2024-03-08T07:25:04;14.37;;;12.87;;
85807;SDS011;76250;48.718;9.000;2024-03-08T07:27:53;14.23;;;12.70;;
85807;SDS011;76250;48.718;9.000;2024-03-08T07:30:23;17.40;;;14.33;;
85807;SDS011;76250;48.718;9.000;2024-03-08T07:33:11;14.93;;;13.33;;
85807;SDS011;76250;48.718;9.000;2024-03-08T07:35:40;14.30;;;12.80;;
85807;SDS011;76250;48.718;9.000;2024-03-08T07:38:12;15.80;;;14.10;;
85807;SDS011;76250;48.718;9.000;2024-03-08T07:40:40;15.50;;;13.23;;
85807;SDS011;76250;48.718;9.000;2024-03-08T07:43:12;14.77;;;13.27;;
85807;SDS011;76250;48.718;9.000;2024-03-08T07:45:40;16.77;;;13.90;;
85807;SDS011;76250;48.718;9.000;2024-03-08T07:48:09;14.93;;;13.37;;
85807;SDS011;76250;48.718;9.000;2024-03-08T07:50:38;16.50;;;14.57;;
85807;SDS011;76250;48.718;9.000;2024-03-08T07:53:07;15.27;;;13.67;;
85807;SDS011;76250;48.718;9.000;2024-03-08T07:55:36;17.97;;;15.63;;
85807;SDS011;76250;48.718;9.000;2024-03-08T07:58:04;15.47;;;13.80;;
85807;SDS011;76250;48.718;9.000;2024-03-08T08:00:33;14.80;;;12.83;;
85807;SDS011;76250;48.718;9.000;2024-03-08T08:03:03;14.50;;;12.47;;
85807;SDS011;76250;48.718;9.000;2024-03-08T08:05:32;15.23;;;13.67;;
85807;SDS011;76250;48.718;9.000;2024-03-08T08:08:02;14.83;;;13.20;;
85807;SDS011;76250;48.718;9.000;2024-03-08T08:10:33;14.33;;;12.70;;
85807;SDS011;76250;48.718;9.000;2024-03-08T08:13:01;13.77;;;12.27;;
85807;SDS011;76250;48.718;9.000;2024-03-08T08:15:32;15.73;;;13.43;;
85807;SDS011;76250;48.718;9.000;2024-03-08T08:18:03;15.67;;;13.13;;
85807;SDS011;76250;48.718;9.000;2024-03-08T08:20:34;13.97;;;12.47;;
85807;SDS011;76250;48.718;9.000;2024-03-08T08:23:02;15.57;;;13.00;;
85807;SDS011;76250;48.718;9.000;2024-03-08T08:25:30;15.20;;;13.37;;
85807;SDS011;76250;48.718;9.000;2024-03-08T08:27:58;15.10;;;13.57;;
85807;SDS011;76250;48.718;9.000;2024-03-08T08:30:26;14.60;;;12.73;;
85807;SDS011;76250;48.718;9.000;2024-03-08T08:32:54;15.80;;;13.53;;
85807;SDS011;76250;48.718;9.000;2024-03-08T08:35:25;15.77;;;13.70;;
85807;SDS011;76250;48.718;9.000;2024-03-08T08:37:56;16.93;;;14.67;;
85807;SDS011;76250;48.718;9.000;2024-03-08T08:40:26;14.90;;;13.27;;
85807;SDS011;76250;48.718;9.000;2024-03-08T08:42:56;15.57;;;12.83;;
85807;SDS011;76250;48.718;9.000;2024-03-08T08:45:25;13.80;;;12.30;;
85807;SDS011;76250;48.718;9.000;2024-03-08T08:47:54;13.23;;;11.83;;
85807;SDS011;76250;48.718;9.000;2024-03-08T08:50:22;12.93;;;11.20;;
85807;SDS011;76250;48.718;9.000;2024-03-08T08:52:51;15.67;;;13.67;;
85807;SDS011;76250;48.718;9.000;2024-03-08T08:55:20;15.40;;;13.77;;
85807;SDS011;76250;48.718;9.000;2024-03-08T08:57:53;14.50;;;12.80;;
85807;SDS011;76250;48.718;9.000;2024-03-08T09:00:21;13.83;;;12.43;;
85807;SDS011;76250;48.718;9.000;2024-03-08T09:02:55;14.10;;;12.23;;
85807;SDS011;76250;48.718;9.000;2024-03-08T09:05:25;14.60;;;13.10;;
85807;SDS011;76250;48.718;9.000;2024-03-08T09:07:54;14.43;;;12.93;;
85807;SDS011;76250;48.718;9.000;2024-03-08T09:10:22;13.30;;;11.87;;
85807;SDS011;76250;48.718;9.000;2024-03-08T09:12:57;15.17;;;13.50;;
85807;SDS011;76250;48.718;9.000;2024-03-08T09:15:27;13.90;;;12.00;;
85807;SDS011;76250;48.718;9.000;2024-03-08T09:17:56;14.37;;;12.53;;
85807;SDS011;76250;48.718;9.000;2024-03-08T09:20:24;14.03;;;12.63;;
85807;SDS011;76250;48.718;9.000;2024-03-08T09:22:52;13.87;;;12.33;;
85807;SDS011;76250;48.718;9.000;2024-03-08T09:25:20;13.87;;;12.37;;
85807;SDS011;76250;48.718;9.000;2024-03-08T09:27:49;14.77;;;12.97;;
85807;SDS011;76250;48.718;9.000;2024-03-08T09:30:17;12.93;;;11.60;;
85807;SDS011;76250;48.718;9.000;2024-03-08T09:32:45;14.40;;;12.00;;
85807;SDS011;76250;48.718;9.000;2024-03-08T09:35:13;13.20;;;11.80;;
85807;SDS011;76250;48.718;9.000;2024-03-08T09:37:42;14.90;;;12.63;;
85807;SDS011;76250;48.718;9.000;2024-03-08T09:40:10;13.33;;;12.03;;
85807;SDS011;76250;48.718;9.000;2024-03-08T09:42:48;13.87;;;11.93;;
85807;SDS011;76250;48.718;9.000;2024-03-08T09:45:19;12.87;;;11.50;;
85807;SDS011;76250;48.718;9.000;2024-03-08T09:47:53;13.90;;;12.47;;
85807;SDS011;76250;48.718;9.000;2024-03-08T09:50:29;12.37;;;11.10;;
85807;SDS011;76250;48.718;9.000;2024-03-08T09:52:57;12.23;;;10.80;;
85807;SDS011;76250;48.718;9.000;2024-03-08T09:55:27;12.37;;;11.00;;
85807;SDS011;76250;48.718;9.000;2024-03-08T09:57:59;13.17;;;11.67;;
85807;SDS011;76250;48.718;9.000;2024-03-08T10:00:49;13.00;;;11.50;;
85807;SDS011;76250;48.718;9.000;2024-03-08T10:03:19;12.83;;;11.50;;
85807;SDS011;76250;48.718;9.000;2024-03-08T10:05:48;13.07;;;11.27;;
85807;SDS011;76250;48.718;9.000;2024-03-08T10:08:16;14.23;;;11.93;;
85807;SDS011;76250;48.718;9.000;2024-03-08T10:10:46;12.93;;;11.47;;
85807;SDS011;76250;48.718;9.000;2024-03-08T10:13:16;12.87;;;11.57;;
85807;SDS011;76250;48.718;9.000;2024-03-08T10:15:47;12.37;;;10.73;;
85807;SDS011;76250;48.718;9.000;2024-03-08T10:18:16;12.27;;;11.07;;
85807;SDS011;76250;48.718;9.000;2024-03-08T10:20:44;12.43;;;10.90;;
85807;SDS011;76250;48.718;9.000;2024-03-08T10:23:12;12.73;;;11.27;;
85807;SDS011;76250;48.718;9.000;2024-03-08T10:25:41;13.17;;;11.77;;
85807;SDS011;76250;48.718;9.000;2024-03-08T10:28:10;11.43;;;10.23;;
85807;SDS011;76250;48.718;9.000;2024-03-08T10:30:38;12.13;;;10.83;;
85807;SDS011;76250;48.718;9.000;2024-03-08T10:33:06;11.97;;;10.70;;
85807;SDS011;76250;48.718;9.000;2024-03-08T10:35:34;12.00;;;10.80;;
85807;SDS011;76250;48.718;9.000;2024-03-08T10:38:02;12.67;;;11.40;;
85807;SDS011;76250;48.718;9.000;2024-03-08T10:40:35;11.13;;;9.97;;
85807;SDS011;76250;48.718;9.000;2024-03-08T10:43:10;12.27;;;11.07;;
85807;SDS011;76250;48.718;9.000;2024-03-08T10:46:21;10.40;;;9.37;;
85807;SDS011;76250;48.718;9.000;2024-03-08T10:49:11;12.00;;;10.77;;
85807;SDS011;76250;48.718;9.000;2024-03-08T10:51:45;11.83;;;10.10;;
85807;SDS011;76250;48.718;9.000;2024-03-08T10:54:14;12.03;;;10.73;;
85807;SDS011;76250;48.718;9.000;2024-03-08T10:56:43;12.23;;;10.93;;
85807;SDS011;76250;48.718;9.000;2024-03-08T10:59:11;11.40;;;10.30;;
85807;SDS011;76250;48.718;9.000;2024-03-08T11:01:41;10.43;;;9.33;;
85807;SDS011;76250;48.718;9.000;2024-03-08T11:04:09;12.43;;;11.13;;
85807;SDS011;76250;48.718;9.000;2024-03-08T11:09:08;12.17;;;10.90;;
85807;SDS011;76250;48.718;9.000;2024-03-08T11:15:00;11.27;;;10.17;;
85807;SDS011;76250;48.718;9.000;2024-03-08T11:20:09;11.23;;;10.13;;
85807;SDS011;76250;48.718;9.000;2024-03-08T11:25:35;11.07;;;9.97;;
85807;SDS011;76250;48.718;9.000;2024-03-08T11:28:20;11.23;;;10.13;;
85807;SDS011;76250;48.718;9.000;2024-03-08T11:33:28;11.07;;;9.97;;
85807;SDS011;76250;48.718;9.000;2024-03-08T11:38:45;10.47;;;9.43;;
85807;SDS011;76250;48.718;9.000;2024-03-08T11:41:17;12.07;;;10.87;;
85807;SDS011;76250;48.718;9.000;2024-03-08T11:43:49;11.83;;;10.50;;
85807;SDS011;76250;48.718;9.000;2024-03-08T11:46:32;12.23;;;11.03;;
85807;SDS011;76250;48.718;9.000;2024-03-08T11:49:03;11.60;;;10.40;;
85807;SDS011;76250;48.718;9.000;2024-03-08T11:51:33;11.43;;;10.27;;
85807;SDS011;76250;48.718;9.000;2024-03-08T11:54:01;11.10;;;10.00;;
85807;SDS011;76250;48.718;9.000;2024-03-08T11:56:30;10.83;;;9.73;;
85807;SDS011;76250;48.718;9.000;2024-03-08T11:58:59;12.37;;;11.07;;
85807;SDS011;76250;48.718;9.000;2024-03-08T12:01:29;11.57;;;9.83;;
85807;SDS011;76250;48.718;9.000;2024-03-08T12:03:59;13.03;;;11.17;;
85807;SDS011;76250;48.718;9.000;2024-03-08T12:06:36;12.07;;;10.87;;
85807;SDS011;76250;48.718;9.000;2024-03-08T12:09:10;10.30;;;9.33;;
85807;SDS011;76250;48.718;9.000;2024-03-08T12:11:38;11.33;;;9.63;;
85807;SDS011;76250;48.718;9.000;2024-03-08T12:14:07;12.13;;;10.93;;
85807;SDS011;76250;48.718;9.000;2024-03-08T12:16:36;12.47;;;11.17;;
85807;SDS011;76250;48.718;9.000;2024-03-08T12:19:04;11.57;;;10.37;;
85807;SDS011;76250;48.718;9.000;2024-03-08T12:21:33;11.83;;;10.63;;
85807;SDS011;76250;48.718;9.000;2024-03-08T12:24:03;12.07;;;10.87;;
85807;SDS011;76250;48.718;9.000;2024-03-08T12:26:37;12.77;;;11.47;;
85807;SDS011;76250;48.718;9.000;2024-03-08T12:29:16;11.87;;;10.50;;
85807;SDS011;76250;48.718;9.000;2024-03-08T12:31:53;12.77;;;10.60;;
85807;SDS011;76250;48.718;9.000;2024-03-08T12:34:23;10.97;;;9.83;;
85807;SDS011;76250;48.718;9.000;2024-03-08T12:36:51;12.40;;;11.10;;
85807;SDS011;76250;48.718;9.000;2024-03-08T12:39:22;10.30;;;9.20;;
85807;SDS011;76250;48.718;9.000;2024-03-08T12:41:55;12.57;;;11.10;;
85807;SDS011;76250;48.718;9.000;2024-03-08T12:44:27;10.63;;;9.60;;
85807;SDS011;76250;48.718;9.000;2024-03-08T12:46:56;10.73;;;9.63;;
85807;SDS011;76250;48.718;9.000;2024-03-08T12:49:27;11.40;;;10.17;;
85807;SDS011;76250;48.718;9.000;2024-03-08T12:51:55;10.60;;;9.50;;
85807;SDS011;76250;48.718;9.000;2024-03-08T12:54:23;9.80;;;8.80;;
85807;SDS011;76250;48.718;9.000;2024-03-08T12:56:51;13.10;;;11.17;;
85807;SDS011;76250;48.718;9.000;2024-03-08T12:59:21;12.03;;;10.73;;
85807;SDS011;76250;48.718;9.000;2024-03-08T13:01:51;14.07;;;12.40;;
85807;SDS011;76250;48.718;9.000;2024-03-08T13:04:21;11.93;;;10.67;;
85807;SDS011;76250;48.718;9.000;2024-03-08T13:06:49;11.67;;;10.47;;
85807;SDS011;76250;48.718;9.000;2024-03-08T13:09:21;11.80;;;10.60;;
85807;SDS011;76250;48.718;9.000;2024-03-08T13:11:50;12.80;;;11.50;;
85807;SDS011;76250;48.718;9.000;2024-03-08T13:14:17;11.57;;;10.37;;
85807;SDS011;76250;48.718;9.000;2024-03-08T13:16:45;11.40;;;10.23;;
85807;SDS011;76250;48.718;9.000;2024-03-08T13:19:16;12.43;;;11.13;;
85807;SDS011;76250;48.718;9.000;2024-03-08T13:21:44;12.60;;;10.83;;
85807;SDS011;76250;48.718;9.000;2024-03-08T13:24:16;12.03;;;10.83;;
85807;SDS011;76250;48.718;9.000;2024-03-08T13:26:46;12.97;;;11.67;;
85807;SDS011;76250;48.718;9.000;2024-03-08T13:29:15;14.37;;;11.10;;
85807;SDS011;76250;48.718;9.000;2024-03-08T13:31:43;12.27;;;10.53;;
85807;SDS011;76250;48.718;9.000;2024-03-08T13:34:11;12.60;;;10.83;;
85807;SDS011;76250;48.718;9.000;2024-03-08T13:36:39;11.53;;;10.33;;
85807;SDS011;76250;48.718;9.000;2024-03-08T13:39:11;11.67;;;10.40;;
85807;SDS011;76250;48.718;9.000;2024-03-08T13:41:42;12.20;;;10.43;;
85807;SDS011;76250;48.718;9.000;2024-03-08T13:44:12;10.90;;;9.77;;
85807;SDS011;76250;48.718;9.000;2024-03-08T13:46:40;12.50;;;11.30;;
85807;SDS011;76250;48.718;9.000;2024-03-08T13:49:09;13.73;;;12.00;;
85807;SDS011;76250;48.718;9.000;2024-03-08T13:51:38;12.00;;;10.47;;
85807;SDS011;76250;48.718;9.000;2024-03-08T13:54:06;11.97;;;10.70;;
85807;SDS011;76250;48.718;9.000;2024-03-08T13:56:34;12.77;;;11.47;;
85807;SDS011;76250;48.718;9.000;2024-03-08T13:59:02;11.10;;;9.90;;
85807;SDS011;76250;48.718;9.000;2024-03-08T14:01:30;13.80;;;11.93;;
85807;SDS011;76250;48.718;9.000;2024-03-08T14:03:58;13.27;;;11.30;;
85807;SDS011;76250;48.718;9.000;2024-03-08T14:06:26;12.17;;;10.90;;
85807;SDS011;76250;48.718;9.000;2024-03-08T14:08:54;13.07;;;11.67;;
85807;SDS011;76250;48.718;9.000;2024-03-08T14:11:24;12.90;;;11.37;;
85807;SDS011;76250;48.718;9.000;2024-03-08T14:13:52;12.10;;;10.80;;
85807;SDS011;76250;48.718;9.000;2024-03-08T14:16:21;13.37;;;11.30;;
85807;SDS011;76250;48.718;9.000;2024-03-08T14:18:49;12.80;;;10.60;;
85807;SDS011;76250;48.718;9.000;2024-03-08T14:21:17;12.43;;;10.33;;
85807;SDS011;76250;48.718;9.000;2024-03-08T14:23:45;13.33;;;11.10;;
85807;SDS011;76250;48.718;9.000;2024-03-08T14:26:15;13.83;;;12.33;;
85807;SDS011;76250;48.718;9.000;2024-03-08T14:28:43;13.00;;;11.37;;
85807;SDS011;76250;48.718;9.000;2024-03-08T14:31:13;13.33;;;11.53;;
85807;SDS011;76250;48.718;9.000;2024-03-08T14:33:44;12.07;;;10.20;;
85807;SDS011;76250;48.718;9.000;2024-03-08T14:36:16;12.47;;;10.20;;
85807;SDS011;76250;48.718;9.000;2024-03-08T14:38:44;11.93;;;10.73;;
85807;SDS011;76250;48.718;9.000;2024-03-08T14:41:14;12.00;;;10.80;;
85807;SDS011;76250;48.718;9.000;2024-03-08T14:43:42;13.53;;;10.93;;
85807;SDS011;76250;48.718;9.000;2024-03-08T14:46:15;12.00;;;10.37;;
85807;SDS011;76250;48.718;9.000;2024-03-08T14:48:48;12.83;;;11.53;;
85807;SDS011;76250;48.718;9.000;2024-03-08T14:51:19;13.30;;;11.90;;
85807;SDS011;76250;48.718;9.000;2024-03-08T14:53:49;13.97;;;11.97;;